• Join FlightAware (Why Join?)
  • Login
  • US Flag 
06:21PM EDT


 

Airport Tracker/Info


-or-


 

Live Flight TrackerFlight Track Log ✈ N321DD ✈ 18-Apr-2013 ✈ KFLL - KTPF

Flight Track Log - Related Links

Times and Time Zones

All times are in EDT time to prevent confusion due to time zone crossing. See the N321DD flight status page for this flight to view local times or setup timezone preferences in your user account.

Time Position Orientation Groundspeed Altitude Reporting Facility
EDT Latitude Longitude Course Direction KTS MPH feet Rate Location/Type
06:35PM 26.0747 -80.1436 51° Northeast 122 140 700  Level Miami Center
06:36PM 26.0878 -80.1256 51° Northeast 121 139 1,400 1,020 Climbing Miami Center
06:37PM 26.1175 -80.1008 37° Northeast 149 171 2,400 840 Climbing Miami Center
06:38PM 26.1653 -80.1161 344° North 159 183 3,300 720 Climbing Miami Center
06:39PM 26.2067 -80.1356 337° Northwest 160 184 4,000 720 Climbing Miami Center
06:40PM 26.2181 -80.1800 286° West 159 183 4,800 900 Climbing Miami Center
06:41PM 26.2233 -80.2289 277° West 152 175 5,800 600 Climbing Miami Center
06:42PM 26.2261 -80.2797 273° West 185 213 6,100 240 Climbing Miami Center
06:43PM 26.2331 -80.3403 277° West 190 219 6,300 540 Climbing Miami Center
06:44PM 26.2383 -80.3914 277° West 160 184 7,300 840 Climbing Miami Center
06:45PM 26.2475 -80.4333 284° West 159 183 8,000 360 Climbing Miami Center
06:46PM 26.2525 -80.4936 275° West 178 205 8,100  Climbing Miami Center
06:47PM 26.2594 -80.5494 278° West 183 211 8,100  Level Miami Center
06:48PM 26.2683 -80.6075 280° West 183 211 8,100 -60 Level Miami Center
06:49PM 26.3006 -80.6525 309° West 177 204 8,000  Descending Miami Center
06:50PM 26.3289 -80.6931 308° West 182 209 8,100  Climbing Miami Center
06:51PM 26.3650 -80.7406 310° West 182 209 8,100 -60 Level Miami Center
06:52PM 26.3931 -80.7831 306° West 187 215 8,000  Descending Miami Center
06:53PM 26.4294 -80.8308 310° West 187 215 8,100  Climbing Miami Center
06:54PM 26.4575 -80.8733 306° West 187 215 8,100  Level Miami Center
06:55PM 26.4917 -80.9186 310° West 187 215 8,100  Level Miami Center
06:56PM 26.5261 -80.9639 310° West 194 223 8,100  Level Miami Center
06:57PM 26.5581 -81.0092 308° West 183 211 8,100 -60 Level Miami Center
06:58PM 26.5883 -81.0497 310° West 183 211 8,000 -60 Descending Miami Center
06:59PM 26.6142 -81.0903 305° West 183 211 8,000  Level Miami Center
07:00PM 26.6464 -81.1331 310° West 183 211 8,000  Level Miami Center
07:01PM 26.6806 -81.1786 310° West 177 204 8,000  Level Miami Center
07:02PM 26.7106 -81.2214 308° West 182 209 8,000  Level Miami Center
07:03PM 26.7428 -81.2669 308° West 182 209 8,000  Level Miami Center
07:04PM 26.7708 -81.3050 310° West 182 209 8,000  Level Miami Center
07:05PM 26.8028 -81.3528 307° West 177 204 8,000  Level Miami Center
07:06PM 26.8347 -81.3936 311° West 177 204 8,000  Level Miami Center
07:07PM 26.8689 -81.4369 311° West 182 209 8,000  Level Miami Center
07:08PM 26.8992 -81.4731 313° West 187 215 8,000  Level Miami Center
07:09PM 26.9333 -81.5139 313° West 187 215 8,000  Level Miami Center
07:10PM 26.9717 -81.5575 315° West 182 209 8,000  Level Miami Center
07:11PM 27.0100 -81.5986 316° Northwest 177 204 8,000  Level Miami Center
07:12PM 27.0444 -81.6303 321° Northwest 177 204 8,000  Level Miami Center
07:13PM 27.0850 -81.6647 323° Northwest 183 211 8,000  Level Miami Center
07:14PM 27.1256 -81.6989 323° Northwest 183 211 8,000  Level Miami Center
07:15PM 27.1661 -81.7356 321° Northwest 183 211 8,000  Level Miami Center
07:16PM 27.2044 -81.7700 321° Northwest 183 211 8,000 -120 Level Miami Center
07:17PM 27.2450 -81.8089 320° Northwest 183 211 7,800 -480 Descending Miami Center
07:18PM 27.2894 -81.8531 319° Northwest 193 222 7,100 -600 Descending Miami Center
07:19PM 27.3361 -81.8922 323° Northwest 200 230 6,700 -480 Descending Miami Center
07:20PM 27.3786 -81.9317 321° Northwest 200 230 6,200 -540 Descending Miami Center
07:21PM 27.4208 -81.9756 317° Northwest 200 230 5,700 -720 Descending Miami Center
07:22PM 27.4586 -82.0239 311° West 200 230 4,800 -780 Descending Miami Center
07:23PM 27.4881 -82.0792 301° West 206 237 4,200 -540 Descending Miami Center
07:24PM 27.5089 -82.1364 292° West 206 237 3,800 -540 Descending Miami Center
07:25PM 27.5236 -82.1908 287° West 195 224 3,200 -420 Descending Miami Center
07:26PM 27.5467 -82.2433 296° West 176 203 3,000 -120 Descending Miami Center
07:27PM 27.5678 -82.2911 297° West 167 192 3,000  Level Miami Center
07:28PM 27.6153 -82.3053 345° North 167 192 3,000  Level Miami Center
07:29PM 27.6833 -82.3167 352° North 165 190 3,000 -60 Level Tampa TRACON
07:30PM 27.7167 -82.3333 336° Northwest 165 190 2,900 -120 Descending Tampa TRACON